createdAt,value
2019-01-04T00:01:06.876Z,14.30
2019-01-04T00:03:48.023Z,15.30
2019-01-04T00:06:28.160Z,16.93
2019-01-04T00:09:09.528Z,18.00
2019-01-04T00:11:49.853Z,20.90
2019-01-04T00:14:30.833Z,22.63
2019-01-04T00:17:11.425Z,24.33
2019-01-04T00:19:52.709Z,25.90
2019-01-04T00:22:33.862Z,28.17
2019-01-04T00:25:14.296Z,29.67
2019-01-04T00:27:55.589Z,33.33
2019-01-04T00:30:35.707Z,35.93
2019-01-04T00:33:16.796Z,36.40
2019-01-04T00:35:57.825Z,38.03
2019-01-04T00:38:38.724Z,38.57
2019-01-04T00:41:19.750Z,40.67
2019-01-04T00:44:00.192Z,43.23
2019-01-04T00:46:41.161Z,46.70
2019-01-04T00:49:21.990Z,49.43
2019-01-04T00:52:02.804Z,50.00
2019-01-04T00:58:02.516Z,53.60
2019-01-04T01:00:42.953Z,55.03
2019-01-04T01:03:23.677Z,58.43
2019-01-04T01:12:17.369Z,64.00
2019-01-04T01:15:17.416Z,64.57
2019-01-04T01:17:57.881Z,65.20
2019-01-04T01:20:38.892Z,68.43
2019-01-04T01:23:19.588Z,69.93
2019-01-04T01:29:05.548Z,74.47
2019-01-04T01:31:46.418Z,77.17
2019-01-04T01:34:54.980Z,77.00
2019-01-04T01:44:57.741Z,82.87
2019-01-04T01:51:35.063Z,86.13
2019-01-04T01:54:22.729Z,88.23
2019-01-04T01:57:10.403Z,85.50
2019-01-04T01:59:58.080Z,88.37
2019-01-04T02:02:45.740Z,89.07
2019-01-04T02:05:33.437Z,90.57
2019-01-04T02:08:14.385Z,91.20
2019-01-04T02:10:55.132Z,88.60
2019-01-04T02:13:36.018Z,87.90
2019-01-04T02:16:16.928Z,87.87
2019-01-04T02:18:57.815Z,88.63
2019-01-04T02:21:39.405Z,86.90
2019-01-04T02:24:19.633Z,88.77
2019-01-04T02:27:00.096Z,88.20
2019-01-04T02:29:41.056Z,85.70
2019-01-04T02:32:22.186Z,88.77
2019-01-04T02:35:03.333Z,90.77
2019-01-04T02:40:26.223Z,92.37
2019-01-04T02:43:07.125Z,88.60
2019-01-04T02:45:47.865Z,86.83
2019-01-04T02:48:28.872Z,92.13
2019-01-04T02:51:09.076Z,89.00
2019-01-04T02:53:49.916Z,93.27
2019-01-04T02:56:31.005Z,94.77
2019-01-04T02:59:12.414Z,89.97
2019-01-04T03:01:53.388Z,91.23
2019-01-04T03:04:33.655Z,91.50
2019-01-04T03:07:13.865Z,92.60
2019-01-04T03:09:54.944Z,89.47
2019-01-04T03:12:36.045Z,86.07
2019-01-04T03:15:17.062Z,89.53
2019-01-04T03:17:58.028Z,87.10
2019-01-04T03:20:38.625Z,85.97
2019-01-04T03:23:19.694Z,80.23
2019-01-04T03:26:00.509Z,77.73
2019-01-04T03:28:41.389Z,81.40
2019-01-04T03:31:22.169Z,81.10
2019-01-04T03:34:03.552Z,82.23
2019-01-04T03:36:44.106Z,82.70
2019-01-04T03:39:25.065Z,76.10
2019-01-04T03:42:05.220Z,77.60
2019-01-04T03:44:46.564Z,74.53
2019-01-04T03:47:27.248Z,74.03
2019-01-04T03:50:07.554Z,71.27
2019-01-04T03:52:48.445Z,69.83
2019-01-04T03:55:29.610Z,63.13
2019-01-04T03:58:10.405Z,66.47
2019-01-04T04:00:51.266Z,68.33
2019-01-04T04:03:32.444Z,63.63
2019-01-04T04:06:13.256Z,59.70
2019-01-04T04:08:54.220Z,59.00
2019-01-04T04:11:35.329Z,59.17
2019-01-04T04:14:16.357Z,55.87
2019-01-04T04:16:56.747Z,54.80
2019-01-04T04:19:37.658Z,56.70
2019-01-04T04:22:18.711Z,52.63
2019-01-04T04:24:59.733Z,52.77
2019-01-04T04:27:40.603Z,45.63
2019-01-04T04:30:21.433Z,47.77
2019-01-04T04:33:01.820Z,46.57
2019-01-04T04:35:42.998Z,46.83
2019-01-04T04:38:23.669Z,45.03
2019-01-04T04:41:04.004Z,42.73
2019-01-04T04:43:44.705Z,40.63
2019-01-04T04:46:25.920Z,42.90
2019-01-04T04:49:06.632Z,35.93
2019-01-04T04:51:47.168Z,38.70
2019-01-04T04:54:27.969Z,37.07
2019-01-04T04:57:08.804Z,35.73
2019-01-04T04:59:49.928Z,34.33
2019-01-04T05:02:30.741Z,33.87
2019-01-04T05:05:11.773Z,33.90
2019-01-04T05:07:52.864Z,31.00
2019-01-04T05:10:33.621Z,31.10
2019-01-04T05:13:14.191Z,30.13
2019-01-04T05:15:55.077Z,29.70
2019-01-04T05:18:35.883Z,28.17
2019-01-04T05:21:16.662Z,26.87
2019-01-04T05:23:57.133Z,26.67
2019-01-04T05:26:37.752Z,25.27
2019-01-04T05:29:18.417Z,23.67
2019-01-04T05:31:58.834Z,24.00
2019-01-04T05:34:39.776Z,23.60
2019-01-04T05:37:20.742Z,21.83
2019-01-04T05:40:00.954Z,21.63
2019-01-04T05:42:42.085Z,20.10
2019-01-04T05:45:23.300Z,18.67
2019-01-04T05:48:04.277Z,18.63
2019-01-04T05:50:45.098Z,17.10
2019-01-04T05:53:26.191Z,17.07
2019-01-04T05:56:06.549Z,15.40
2019-01-04T05:58:47.372Z,14.80
2019-01-04T06:01:28.345Z,14.10
2019-01-04T06:04:08.818Z,13.03
2019-01-04T06:06:49.909Z,13.73
2019-01-04T06:09:30.719Z,12.37
2019-01-04T06:12:11.732Z,12.03
2019-01-04T06:14:52.265Z,10.97
2019-01-04T06:17:32.794Z,10.93
2019-01-04T06:20:13.627Z,10.90
2019-01-04T06:22:54.964Z,10.03
2019-01-04T06:25:35.527Z,9.10
2019-01-04T06:28:16.380Z,8.70
2019-01-04T06:30:56.938Z,8.33
2019-01-04T06:33:37.194Z,7.63
2019-01-04T06:36:18.221Z,7.80
2019-01-04T06:38:58.598Z,7.03
2019-01-04T06:41:39.218Z,6.60
2019-01-04T06:44:17.923Z,6.43
2019-01-04T06:47:26.415Z,6.20
2019-01-04T06:50:14.094Z,5.90
2019-01-04T06:53:01.814Z,5.73
2019-01-04T06:56:10.296Z,5.00
2019-01-04T06:58:57.964Z,4.90
2019-01-04T07:01:45.660Z,4.77
2019-01-04T07:04:33.308Z,4.70
2019-01-04T07:07:20.998Z,4.20
2019-01-04T07:10:09.033Z,4.33
2019-01-04T07:12:56.711Z,3.93
2019-01-04T07:15:44.376Z,3.90
2019-01-04T07:18:32.078Z,3.60
2019-01-04T07:21:19.773Z,3.50
2019-01-04T07:24:07.471Z,3.17
2019-01-04T07:26:55.245Z,3.00
2019-01-04T07:29:42.965Z,3.20
2019-01-04T07:32:23.819Z,2.67
2019-01-04T07:35:04.931Z,2.70
2019-01-04T07:37:45.848Z,2.60
2019-01-04T07:40:26.716Z,2.60
2019-01-04T07:43:07.871Z,2.47
2019-01-04T07:45:48.580Z,2.40
2019-01-04T07:48:29.606Z,2.40
2019-01-04T07:51:10.523Z,2.30
2019-01-04T07:53:51.482Z,2.33
2019-01-04T07:56:31.851Z,2.30
2019-01-04T07:59:12.933Z,2.23
2019-01-04T08:01:53.485Z,1.87
2019-01-04T08:04:33.865Z,2.27
2019-01-04T08:07:14.594Z,2.00
2019-01-04T08:09:55.046Z,1.80
2019-01-04T08:12:35.784Z,2.00
2019-01-04T08:15:17.142Z,1.83
2019-01-04T08:17:57.931Z,1.70
2019-01-04T08:20:39.056Z,1.90
2019-01-04T08:23:19.936Z,1.80
2019-01-04T08:26:00.962Z,1.77
2019-01-04T08:28:41.940Z,1.80
2019-01-04T08:31:22.684Z,1.80
2019-01-04T08:34:03.132Z,2.00
2019-01-04T08:36:43.738Z,1.60
2019-01-04T08:39:24.662Z,1.60
2019-01-04T08:42:05.564Z,1.60
2019-01-04T08:44:46.325Z,1.50
2019-01-04T08:47:27.097Z,1.60
2019-01-04T08:50:08.068Z,1.50
2019-01-04T08:52:48.904Z,1.40
2019-01-04T08:55:29.637Z,1.67
2019-01-04T08:58:10.601Z,1.50
2019-01-04T09:00:49.276Z,1.33
2019-01-04T09:03:36.928Z,1.30
2019-01-04T09:06:24.614Z,1.30
2019-01-04T09:09:12.540Z,1.40
2019-01-04T09:12:00.488Z,1.30
2019-01-04T09:14:48.165Z,1.70
2019-01-04T09:17:35.829Z,1.10
2019-01-04T09:20:23.501Z,1.33
2019-01-04T09:27:13.041Z,1.37
2019-01-04T09:30:01.009Z,1.23
2019-01-04T09:32:48.656Z,1.40
2019-01-04T09:35:36.331Z,1.40
2019-01-04T09:38:24.012Z,1.33
2019-01-04T09:41:33.641Z,1.30
2019-01-04T09:44:14.576Z,1.40
2019-01-04T09:46:55.144Z,1.40
2019-01-04T09:49:55.372Z,1.97
2019-01-04T09:52:36.237Z,1.43
2019-01-04T09:55:17.249Z,1.20
2019-01-04T09:57:58.164Z,1.20
2019-01-04T10:00:39.168Z,1.40
2019-01-04T10:03:20.192Z,1.50
2019-01-04T10:06:01.166Z,1.20
2019-01-04T10:08:45.026Z,1.40
2019-01-04T10:11:24.402Z,2.40
2019-01-04T10:14:05.376Z,1.40
2019-01-04T10:16:46.556Z,1.40
2019-01-04T10:19:27.320Z,1.30
2019-01-04T10:22:07.741Z,1.50
2019-01-04T10:24:48.916Z,1.20
2019-01-04T10:27:29.688Z,1.30
2019-01-04T10:30:10.801Z,1.37
2019-01-04T10:32:51.838Z,1.30
2019-01-04T10:35:52.132Z,1.67
2019-01-04T10:38:32.716Z,1.30
2019-01-04T10:41:13.472Z,1.37
2019-01-04T10:50:21.120Z,1.40
2019-01-04T10:53:02.211Z,1.50
2019-01-04T10:55:43.140Z,1.40
2019-01-04T10:58:24.272Z,1.27
2019-01-04T11:04:10.949Z,1.60
2019-01-04T11:06:52.048Z,1.40
2019-01-04T11:12:38.321Z,1.50
2019-01-04T11:18:38.641Z,1.40
2019-01-04T11:24:38.467Z,1.20
2019-01-04T11:27:19.337Z,1.23
2019-01-04T11:30:00.194Z,1.50
2019-01-04T11:32:41.324Z,1.40
2019-01-04T11:35:22.428Z,1.30
2019-01-04T11:38:03.149Z,1.50
2019-01-04T11:40:43.388Z,1.40
2019-01-04T11:43:23.685Z,1.30
2019-01-04T11:46:04.535Z,1.30
2019-01-04T11:48:45.400Z,1.50
2019-01-04T11:51:26.897Z,1.20
2019-01-04T11:54:07.765Z,1.17
2019-01-04T11:56:48.540Z,1.30
2019-01-04T11:59:29.363Z,1.27
2019-01-04T12:02:09.941Z,1.33
2019-01-04T12:04:51.291Z,1.80
2019-01-04T12:07:31.753Z,1.40
2019-01-04T12:10:12.081Z,1.50
2019-01-04T12:12:52.818Z,1.60
2019-01-04T12:15:33.876Z,1.70
2019-01-04T12:18:15.199Z,1.53
2019-01-04T12:20:55.863Z,1.43
2019-01-04T12:23:36.930Z,1.50
2019-01-04T12:26:17.127Z,1.50
2019-01-04T12:28:55.744Z,1.53
2019-01-04T12:31:43.407Z,1.40
2019-01-04T12:34:24.709Z,1.43
2019-01-04T12:37:05.668Z,1.63
2019-01-04T12:39:46.726Z,1.70
2019-01-04T12:42:27.509Z,1.60
2019-01-04T12:45:08.774Z,1.80
2019-01-04T12:47:49.300Z,1.80
2019-01-04T12:50:30.231Z,1.87
2019-01-04T12:53:11.184Z,1.70
2019-01-04T12:55:39.419Z,1.97
2019-01-04T12:58:27.126Z,2.07
2019-01-04T13:01:14.805Z,2.20
2019-01-04T13:04:02.541Z,1.67
2019-01-04T13:06:50.213Z,1.57
2019-01-04T13:09:37.892Z,2.40
2019-01-04T13:12:25.570Z,1.93
2019-01-04T13:15:13.228Z,2.10
2019-01-04T13:18:00.888Z,2.10
2019-01-04T13:20:48.567Z,2.07
2019-01-04T13:23:36.231Z,2.13
2019-01-04T13:26:23.899Z,2.30
2019-01-04T13:29:11.890Z,2.50
2019-01-04T13:31:59.580Z,2.83
2019-01-04T13:34:47.565Z,3.13
2019-01-04T13:37:35.216Z,2.83
2019-01-04T13:40:22.892Z,3.07
2019-01-04T13:43:10.585Z,3.13
2019-01-04T13:49:05.047Z,3.17
2019-01-04T13:51:52.829Z,3.43
2019-01-04T13:54:33.313Z,3.13
2019-01-04T13:57:14.200Z,2.60
2019-01-04T13:59:55.225Z,2.57
2019-01-04T14:02:35.935Z,2.60
2019-01-04T14:05:16.238Z,2.70
2019-01-04T14:07:56.612Z,3.00
2019-01-04T14:10:37.349Z,3.20
2019-01-04T14:13:18.430Z,3.57
2019-01-04T14:15:58.926Z,3.70
2019-01-04T14:18:39.462Z,3.23
2019-01-04T14:21:18.138Z,3.70
2019-01-04T14:24:05.807Z,3.57
2019-01-04T14:26:53.490Z,4.10
2019-01-04T14:29:41.166Z,3.90
2019-01-04T14:32:28.848Z,3.50
2019-01-04T14:35:09.682Z,3.73
2019-01-04T14:37:50.480Z,4.27
2019-01-04T14:40:31.813Z,4.37
2019-01-04T14:43:12.772Z,4.10
2019-01-04T14:45:53.708Z,4.20
2019-01-04T14:48:34.535Z,4.23
2019-01-04T14:51:15.545Z,4.70
2019-01-04T14:53:56.552Z,5.53
2019-01-04T14:56:37.209Z,5.30
2019-01-04T14:59:18.148Z,5.63
2019-01-04T15:01:59.129Z,4.70
2019-01-04T15:04:39.932Z,4.67
2019-01-04T15:07:21.304Z,5.57
2019-01-04T15:10:01.969Z,5.27
2019-01-04T15:12:42.994Z,4.93
2019-01-04T15:15:23.291Z,4.80
2019-01-04T15:18:01.945Z,5.17
2019-01-04T15:20:49.613Z,6.20
2019-01-04T15:23:37.292Z,5.28
2019-01-04T15:26:24.947Z,5.03
2019-01-04T15:29:12.929Z,5.00
2019-01-04T15:32:00.622Z,5.30
2019-01-04T15:34:48.325Z,5.42
2019-01-04T15:37:35.989Z,6.10
2019-01-04T15:40:23.719Z,4.87
2019-01-04T15:43:11.386Z,5.40
2019-01-04T15:46:36.278Z,5.47
2019-01-04T15:49:24.088Z,5.05
2019-01-04T15:52:19.543Z,5.90
2019-01-04T15:55:07.244Z,5.90
2019-01-04T15:57:54.938Z,8.68
2019-01-04T16:00:42.940Z,7.08
2019-01-04T16:03:30.655Z,6.63
2019-01-04T16:06:18.312Z,7.67
2019-01-04T16:12:12.942Z,7.20
2019-01-04T16:15:00.626Z,7.20
2019-01-04T16:17:48.270Z,8.17
2019-01-04T16:20:36.040Z,7.40
2019-01-04T16:23:23.691Z,8.77
2019-01-04T16:26:11.373Z,7.63
2019-01-04T16:28:59.104Z,7.00
2019-01-04T16:31:46.783Z,7.63
2019-01-04T16:34:34.451Z,8.67
2019-01-04T16:37:22.137Z,9.57
2019-01-04T16:40:09.788Z,8.83
2019-01-04T16:42:57.468Z,7.67
2019-01-04T16:45:45.157Z,7.43
2019-01-04T16:48:32.816Z,8.80
2019-01-04T16:51:20.503Z,7.90
2019-01-04T16:54:08.162Z,7.47
2019-01-04T16:56:55.844Z,9.57
2019-01-04T16:59:43.598Z,8.67
2019-01-04T17:02:31.276Z,10.00
2019-01-04T17:05:18.940Z,8.70
2019-01-04T17:11:05.388Z,9.10
2019-01-04T17:13:53.064Z,9.40
2019-01-04T17:16:40.791Z,8.23
2019-01-04T17:22:22.330Z,7.30
2019-01-04T17:25:09.976Z,7.37
2019-01-04T17:27:57.702Z,7.20
2019-01-04T17:30:45.861Z,7.23
2019-01-04T17:33:33.523Z,6.40
2019-01-04T17:36:21.197Z,8.53
2019-01-04T17:39:09.032Z,9.53
2019-01-04T17:41:56.713Z,11.53
2019-01-04T17:44:37.461Z,13.37
2019-01-04T17:47:17.873Z,11.10
2019-01-04T17:49:58.425Z,11.67
2019-01-04T17:52:38.633Z,13.20
2019-01-04T17:55:19.919Z,10.27
2019-01-04T17:58:00.694Z,11.83
2019-01-04T18:00:40.881Z,11.37
2019-01-04T18:03:21.285Z,12.07
2019-01-04T18:06:02.301Z,10.23
2019-01-04T18:08:42.666Z,9.20
2019-01-04T18:11:23.659Z,8.17
2019-01-04T18:14:04.644Z,10.83
2019-01-04T18:16:45.728Z,8.20
2019-01-04T18:19:26.511Z,10.50
2019-01-04T18:22:06.730Z,8.10
2019-01-04T18:24:47.761Z,8.93
2019-01-04T18:27:28.093Z,12.30
2019-01-04T18:30:07.848Z,9.87
2019-01-04T18:32:56.292Z,11.13
2019-01-04T18:35:44.952Z,8.77
2019-01-04T18:38:32.664Z,8.40
2019-01-04T18:41:20.322Z,8.67
2019-01-04T18:44:07.992Z,10.43
2019-01-04T18:46:55.683Z,10.20
2019-01-04T18:49:43.420Z,11.60
2019-01-04T18:52:31.106Z,9.50
2019-01-04T18:55:18.786Z,12.47
2019-01-04T18:58:06.533Z,10.20
2019-01-04T19:06:48.344Z,8.30
2019-01-04T19:09:29.161Z,7.57
2019-01-04T19:12:10.140Z,7.47
2019-01-04T19:14:50.801Z,7.93
2019-01-04T19:17:31.843Z,7.53
2019-01-04T19:20:12.964Z,7.40
2019-01-04T19:22:53.990Z,7.07
2019-01-04T19:25:34.786Z,7.27
2019-01-04T19:28:15.148Z,6.40
2019-01-04T19:30:55.984Z,5.87
2019-01-04T19:33:36.744Z,6.30
2019-01-04T19:36:17.767Z,6.67
2019-01-04T19:38:57.909Z,6.27
2019-01-04T19:41:38.717Z,6.47
2019-01-04T19:44:20.068Z,6.50
2019-01-04T19:47:00.881Z,5.97
2019-01-04T19:49:41.975Z,5.67
2019-01-04T19:52:22.164Z,6.10
2019-01-04T19:55:02.365Z,5.27
2019-01-04T19:57:43.197Z,5.37
2019-01-04T20:00:23.477Z,5.30
2019-01-04T20:03:04.433Z,5.93
2019-01-04T20:05:46.381Z,5.10
2019-01-04T20:08:46.745Z,5.40
2019-01-04T20:11:29.452Z,4.60
2019-01-04T20:14:29.721Z,5.23
2019-01-04T20:20:18.961Z,5.57
2019-01-04T20:23:19.253Z,4.90
2019-01-04T20:26:03.772Z,4.53
2019-01-04T20:28:45.693Z,4.47
2019-01-04T20:31:36.443Z,4.67
2019-01-04T20:34:15.401Z,4.03
2019-01-04T20:36:59.884Z,4.77
2019-01-04T20:39:59.337Z,3.97
2019-01-04T20:42:58.949Z,4.23
2019-01-04T20:45:58.940Z,4.37
2019-01-04T20:51:50.295Z,4.20
2019-01-04T20:54:50.280Z,4.07
2019-01-04T20:57:50.101Z,4.00
2019-01-04T21:00:32.470Z,3.60
2019-01-04T21:03:32.105Z,3.87
2019-01-04T21:06:32.513Z,4.00
2019-01-04T21:09:32.734Z,3.73
2019-01-04T21:12:32.992Z,4.03
2019-01-04T21:15:32.404Z,4.13
2019-01-04T21:18:14.779Z,3.67
2019-01-04T21:21:00.145Z,4.40
2019-01-04T21:23:42.236Z,4.03
2019-01-04T21:26:24.396Z,4.00
2019-01-04T21:34:56.021Z,4.10
2019-01-04T21:37:41.568Z,4.17
2019-01-04T21:40:27.345Z,3.97
2019-01-04T21:43:26.967Z,3.83
2019-01-04T21:46:26.927Z,3.70
2019-01-04T21:52:20.284Z,3.17
2019-01-04T21:54:59.208Z,4.30
2019-01-04T21:57:47.184Z,3.90
2019-01-04T22:00:35.237Z,4.20
2019-01-04T22:03:14.060Z,3.90
2019-01-04T22:06:00.204Z,3.80
2019-01-04T22:08:33.022Z,3.83
2019-01-04T22:11:19.261Z,4.10
2019-01-04T22:14:04.480Z,3.70
2019-01-04T22:16:42.941Z,4.43
2019-01-04T22:19:21.233Z,3.87
2019-01-04T22:22:07.568Z,3.83
2019-01-04T22:24:52.308Z,3.73
2019-01-04T22:27:34.041Z,3.57
2019-01-04T22:30:15.984Z,3.13
2019-01-04T22:32:48.513Z,3.67
2019-01-04T22:35:21.325Z,3.70
2019-01-04T22:38:09.258Z,3.53
2019-01-04T22:40:55.426Z,3.57
2019-01-04T22:43:31.244Z,3.97
2019-01-04T22:46:03.761Z,3.17
2019-01-04T22:48:51.896Z,3.07
2019-01-04T22:51:36.626Z,3.40
2019-01-04T22:54:12.475Z,3.13
2019-01-04T22:56:51.121Z,3.00
2019-01-04T22:59:37.049Z,3.27
2019-01-04T23:02:18.921Z,2.53
2019-01-04T23:05:06.981Z,3.20
2019-01-04T23:07:39.464Z,2.90
2019-01-04T23:10:25.516Z,2.97
2019-01-04T23:12:55.637Z,3.47
2019-01-04T23:15:37.464Z,3.40
2019-01-04T23:18:23.389Z,3.30
2019-01-04T23:20:53.262Z,3.20
2019-01-04T23:23:23.117Z,3.30
2019-01-04T23:26:05.045Z,3.40
2019-01-04T23:28:34.909Z,3.40
2019-01-04T23:31:07.663Z,3.40
2019-01-04T23:33:55.664Z,2.77
2019-01-04T23:36:41.640Z,3.40
2019-01-04T23:39:11.632Z,3.37
2019-01-04T23:41:56.330Z,3.47
2019-01-04T23:44:28.977Z,3.40
2019-01-04T23:47:15.079Z,3.67
2019-01-04T23:50:01.084Z,3.90
2019-01-04T23:52:47.196Z,3.93
2019-01-04T23:55:26.240Z,4.40
2019-01-04T23:58:11.871Z,5.00
